Time;durP1;ratioP1;P1;durP2;ratioP2;P2;SDS_P1;SDS_P2;PMS_P1;PMS_P2;Temp;Humidity;BMP_temperature;BMP_pressure;BME280_temperature;BME280_humidity;BME280_pressure;Samples;Min_cycle;Max_cycle;Signal;HPM_P1;HPM_P2
2024/02/04 00:02:23;;;;;;;;;;;;;;;8.29;100.00;101813.03;5110604;28;19919;-77
2024/02/04 00:04:48;;;;;;;;;;;;;;;8.25;100.00;101812.53;5110809;28;20045;-78
2024/02/04 00:07:13;;;;;;;;;;;;;;;8.23;100.00;101808.28;5110262;28;20456;-79
2024/02/04 00:09:38;;;;;;;;;;;;;;;8.22;100.00;101818.19;5109558;28;20356;-77
2024/02/04 00:12:06;;;;;;;;;;;;;;;8.21;100.00;101815.69;5109777;28;20433;-79
2024/02/04 00:14:31;;;;;;;;;;;;;;;8.21;100.00;101816.50;5099777;27;19927;-77
2024/02/04 00:16:57;;;;;;;;;;;;;;;8.23;100.00;101814.53;5106216;27;19927;-77
2024/02/04 00:19:22;;;;;;;;;;;;;;;8.19;100.00;101808.63;5098736;28;19927;-79
2024/02/04 00:21:47;;;;;;;;;;;;;;;8.17;100.00;101817.81;5108569;27;19923;-77
2024/02/04 00:24:12;;;;;;;;;;;;;;;8.16;100.00;101816.13;5108521;27;19920;-78
2024/02/04 00:26:38;;;;;;;;;;;;;;;8.16;100.00;101818.81;5110417;27;19927;-79
2024/02/04 00:29:03;;;;;;;;;;;;;;;8.13;100.00;101825.34;5111938;27;19966;-79
2024/02/04 00:31:28;;;;;;;;;;;;;;;8.12;100.00;101828.19;5108414;28;19919;-79
2024/02/04 00:33:53;;;;;;;;;;;;;;;8.09;100.00;101823.13;5116138;27;19935;-79
2024/02/04 00:36:19;;;;;;;;;;;;;;;8.08;100.00;101821.44;5100431;28;19920;-78
2024/02/04 00:38:44;;;;;;;;;;;;;;;8.04;100.00;101824.44;5107137;28;19934;-79
2024/02/04 00:41:10;;;;;;;;;;;;;;;8.02;100.00;101826.44;5109620;28;19920;-79
2024/02/04 00:43:35;;;;;;;;;;;;;;;8.00;100.00;101828.44;5106556;28;20010;-79
2024/02/04 00:46:01;;;;;;;;;;;;;;;7.99;100.00;101829.44;5105632;28;20375;-79
2024/02/04 00:48:26;;;;;;;;;;;;;;;7.99;100.00;101837.47;5105844;28;20399;-79
2024/02/04 00:50:51;;;;;;;;;;;;;;;7.99;100.00;101825.91;5101786;27;20039;-79
2024/02/04 00:53:16;;;;;;;;;;;;;;;7.97;100.00;101823.38;5109924;28;20363;-77
2024/02/04 00:55:42;;;;;;;;;;;;;;;7.99;100.00;101828.59;5109695;28;19920;-77
2024/02/04 00:58:07;;;;;;;;;;;;;;;7.98;100.00;101827.75;5101675;28;19920;-77
2024/02/04 01:00:32;;;;;;;;;;;;;;;7.97;100.00;101825.22;5106589;28;19922;-77
2024/02/04 01:02:57;;;;;;;;;;;;;;;7.99;100.00;101818.69;5100857;28;19919;-77
2024/02/04 01:05:23;;;;;;;;;;;;;;;7.97;100.00;101817.19;5106362;28;19923;-77
2024/02/04 01:07:48;;;;;;;;;;;;;;;7.94;100.00;101814.81;5109453;28;19949;-76
2024/02/04 01:10:13;;;;;;;;;;;;;;;7.97;100.00;101819.88;5104112;28;19963;-77
2024/02/04 01:12:38;;;;;;;;;;;;;;;7.95;100.00;101816.50;5099990;28;19916;-76
2024/02/04 01:15:05;;;;;;;;;;;;;;;7.94;100.00;101812.13;5107360;28;19930;-76
2024/02/04 01:17:30;;;;;;;;;;;;;;;7.96;100.00;101818.19;5109808;28;20399;-76
2024/02/04 01:19:56;;;;;;;;;;;;;;;7.93;100.00;101819.34;5093992;28;19923;-76
2024/02/04 01:22:25;;;;;;;;;;;;;;;7.92;100.00;101814.97;5108049;28;19945;-76
2024/02/04 01:24:51;;;;;;;;;;;;;;;7.92;100.00;101816.78;5109834;28;19942;-76
2024/02/04 01:27:16;;;;;;;;;;;;;;;7.89;100.00;101821.47;5108784;28;19920;-76
2024/02/04 01:29:41;;;;;;;;;;;;;;;7.89;100.00;101813.44;5108772;28;20014;-76
2024/02/04 01:32:06;;;;;;;;;;;;;;;7.88;100.00;101810.91;5109909;28;19963;-76
2024/02/04 01:34:32;;;;;;;;;;;;;;;7.89;100.00;101810.75;5108688;28;20374;-76
2024/02/04 01:36:57;;;;;;;;;;;;;;;7.87;100.00;101817.28;5103520;28;20368;-76
2024/02/04 01:39:22;;;;;;;;;;;;;;;7.87;100.00;101820.78;5109912;28;20519;-76
2024/02/04 01:41:47;;;;;;;;;;;;;;;7.86;100.00;101812.91;5110489;28;20355;-76
2024/02/04 01:44:12;;;;;;;;;;;;;;;7.86;100.00;101820.94;5108809;28;20390;-76
2024/02/04 01:46:38;;;;;;;;;;;;;;;7.85;100.00;101816.56;5107733;28;20376;-76
2024/02/04 01:49:03;;;;;;;;;;;;;;;7.86;100.00;101802.19;5110038;28;20284;-76
2024/02/04 01:51:28;;;;;;;;;;;;;;;7.85;100.00;101805.84;5109474;27;20563;-76
2024/02/04 01:53:53;;;;;;;;;;;;;;;7.83;100.00;101805.16;5109011;28;19919;-76
2024/02/04 01:56:19;;;;;;;;;;;;;;;7.83;100.00;101807.84;5110967;28;19919;-76
2024/02/04 01:58:44;;;;;;;;;;;;;;;7.82;100.00;101808.84;5109491;28;20555;-76
2024/02/04 02:01:09;;;;;;;;;;;;;;;7.78;100.00;101816.38;5094666;28;20414;-76
2024/02/04 02:03:34;;;;;;;;;;;;;;;7.79;100.00;101817.19;5108546;28;19938;-76
2024/02/04 02:06:00;;;;;;;;;;;;;;;7.78;100.00;101812.81;5095098;28;19919;-76
2024/02/04 02:08:25;;;;;;;;;;;;;;;7.79;100.00;101819.88;5112769;28;19944;-76
2024/02/04 02:10:54;;;;;;;;;;;;;;;7.74;100.00;101810.47;5113170;28;19920;-76
2024/02/04 02:13:27;;;;;;;;;;;;;;;7.74;100.00;101805.13;5093895;28;19965;-76
2024/02/04 02:15:52;;;;;;;;;;;;;;;7.76;100.00;101812.16;5094225;28;19920;-75
2024/02/04 02:18:20;;;;;;;;;;;;;;;7.79;100.00;101803.78;5094163;28;19926;-75
2024/02/04 02:21:04;;;;;;;;;;;;;;;7.80;100.00;101800.09;5110969;28;19924;-76
2024/02/04 02:23:30;;;;;;;;;;;;;;;7.85;100.00;101800.50;5107958;28;19920;-75
2024/02/04 02:25:55;;;;;;;;;;;;;;;7.80;100.00;101797.44;5112178;28;19923;-76
2024/02/04 02:28:20;;;;;;;;;;;;;;;7.81;100.00;101796.44;5095386;28;19935;-75
2024/02/04 02:30:45;;;;;;;;;;;;;;;7.79;100.00;101807.31;5112171;28;19923;-74
2024/02/04 02:33:11;;;;;;;;;;;;;;;7.79;100.00;101809.16;5109169;28;20386;-75
2024/02/04 02:35:37;;;;;;;;;;;;;;;7.78;100.00;101812.81;5088175;28;20060;-75
2024/02/04 02:38:11;;;;;;;;;;;;;;;7.78;100.00;101810.13;5111989;28;19920;-75
2024/02/04 02:40:41;;;;;;;;;;;;;;;7.76;100.00;101799.59;5094177;28;19926;-76
2024/02/04 02:43:06;;;;;;;;;;;;;;;7.77;100.00;101811.13;5093192;28;19924;-75
2024/02/04 02:45:32;;;;;;;;;;;;;;;7.74;100.00;101802.44;5095001;28;19920;-76
2024/02/04 02:47:57;;;;;;;;;;;;;;;7.76;100.00;101796.06;5105484;28;20354;-76
2024/02/04 02:50:22;;;;;;;;;;;;;;;7.76;100.00;101790.72;5092625;28;20395;-75
2024/02/04 02:52:47;;;;;;;;;;;;;;;7.76;100.00;101788.88;5111810;28;20269;-75
2024/02/04 02:55:12;;;;;;;;;;;;;;;7.73;100.00;101792.72;5111533;28;19926;-75
2024/02/04 02:57:38;;;;;;;;;;;;;;;7.72;100.00;101790.16;5110807;28;19938;-75
2024/02/04 03:00:05;;;;;;;;;;;;;;;7.73;100.00;101781.97;5116772;28;19946;-75
2024/02/04 03:02:30;;;;;;;;;;;;;;;7.76;100.00;101774.63;5112558;28;19924;-76
2024/02/04 03:04:56;;;;;;;;;;;;;;;7.78;100.00;101773.47;5112735;28;19927;-75
2024/02/04 03:07:21;;;;;;;;;;;;;;;7.73;100.00;101779.31;5107585;28;19920;-76
2024/02/04 03:09:46;;;;;;;;;;;;;;;7.77;100.00;101773.59;5112089;28;19930;-77
2024/02/04 03:12:11;;;;;;;;;;;;;;;7.77;100.00;101768.25;5110790;28;19920;-77
2024/02/04 03:14:36;;;;;;;;;;;;;;;7.76;100.00;101771.97;5111508;28;19996;-75
2024/02/04 03:17:02;;;;;;;;;;;;;;;7.74;100.00;101753.31;5111860;28;19924;-75
2024/02/04 03:19:27;;;;;;;;;;;;;;;7.76;100.00;101758.56;5111052;28;20120;-75
2024/02/04 03:21:52;;;;;;;;;;;;;;;7.77;100.00;101744.13;5111437;28;19967;-76
2024/02/04 03:24:17;;;;;;;;;;;;;;;7.72;100.00;101755.31;5111744;28;19920;-76
2024/02/04 03:26:43;;;;;;;;;;;;;;;7.76;100.00;101755.88;5110445;28;19923;-76
2024/02/04 03:29:08;;;;;;;;;;;;;;;7.79;100.00;101752.84;5108774;28;19930;-75
2024/02/04 03:31:33;;;;;;;;;;;;;;;7.79;100.00;101760.91;5110252;28;19924;-76
2024/02/04 03:33:59;;;;;;;;;;;;;;;7.77;100.00;101765.56;5110189;28;19920;-76
2024/02/04 03:36:24;;;;;;;;;;;;;;;7.76;100.00;101769.28;5111512;28;19919;-75
2024/02/04 03:38:51;;;;;;;;;;;;;;;7.73;100.00;101763.22;5110883;28;19920;-75
2024/02/04 03:41:17;;;;;;;;;;;;;;;7.74;100.00;101767.59;5110280;28;20053;-75
2024/02/04 03:43:42;;;;;;;;;;;;;;;7.73;100.00;101778.44;5103047;28;20294;-76
2024/02/04 03:46:07;;;;;;;;;;;;;;;7.73;100.00;101781.13;5108239;28;20337;-75
2024/02/04 03:48:34;;;;;;;;;;;;;;;7.72;100.00;101777.63;5109734;28;20298;-76
2024/02/04 03:50:59;;;;;;;;;;;;;;;7.72;100.00;101764.22;5110370;28;19920;-76
2024/02/04 03:53:25;;;;;;;;;;;;;;;7.73;100.00;101776.63;5111400;28;20411;-75
2024/02/04 03:55:50;;;;;;;;;;;;;;;7.76;100.00;101774.63;5109704;28;19922;-75
2024/02/04 03:58:15;;;;;;;;;;;;;;;7.74;100.00;101766.72;5109557;28;19935;-75
2024/02/04 04:00:40;;;;;;;;;;;;;;;7.71;100.00;101778.63;5104133;28;19930;-75
2024/02/04 04:03:06;;;;;;;;;;;;;;;7.71;100.00;101780.44;5110272;28;19998;-75
2024/02/04 04:05:31;;;;;;;;;;;;;;;7.72;100.00;101784.81;5109198;28;20030;-75
2024/02/04 04:07:56;;;;;;;;;;;;;;;7.70;100.00;101781.44;5110239;28;20014;-75
2024/02/04 04:10:21;;;;;;;;;;;;;;;7.73;100.00;101795.38;5109791;28;19974;-76
2024/02/04 04:12:46;;;;;;;;;;;;;;;7.72;100.00;101801.75;5109269;28;20001;-75
2024/02/04 04:15:12;;;;;;;;;;;;;;;7.72;100.00;101796.38;5109553;28;20378;-76
2024/02/04 04:17:37;;;;;;;;;;;;;;;7.71;100.00;101794.69;5107023;28;20314;-75
2024/02/04 04:20:03;;;;;;;;;;;;;;;7.71;100.00;101792.00;5110258;28;20385;-76
2024/02/04 04:22:29;;;;;;;;;;;;;;;7.68;100.00;101792.31;5110049;28;19934;-76
2024/02/04 04:25:00;;;;;;;;;;;;;;;7.68;100.00;101784.28;5109836;28;19923;-75
2024/02/04 04:27:25;;;;;;;;;;;;;;;7.66;100.00;101780.09;5108261;28;19963;-76
2024/02/04 04:29:50;;;;;;;;;;;;;;;7.66;100.00;101780.91;5108877;28;19959;-75
2024/02/04 04:32:16;;;;;;;;;;;;;;;7.66;100.00;101780.91;5108016;28;19955;-76
2024/02/04 04:34:41;;;;;;;;;;;;;;;7.65;100.00;101773.03;5109884;28;19924;-76
2024/02/04 04:37:06;;;;;;;;;;;;;;;7.62;100.00;101774.16;5109448;28;19926;-76
2024/02/04 04:39:31;;;;;;;;;;;;;;;7.65;100.00;101779.22;5104092;28;19928;-76
2024/02/04 04:41:57;;;;;;;;;;;;;;;7.70;100.00;101754.63;5108293;28;19920;-76
2024/02/04 04:44:22;;;;;;;;;;;;;;;7.66;100.00;101748.75;5108643;28;19926;-76
2024/02/04 04:46:48;;;;;;;;;;;;;;;7.65;100.00;101765.81;5108357;28;20394;-76
2024/02/04 04:49:13;;;;;;;;;;;;;;;7.62;100.00;101766.13;5102554;28;20328;-76
2024/02/04 04:51:38;;;;;;;;;;;;;;;7.61;100.00;101764.44;5100386;28;19920;-76
2024/02/04 04:54:03;;;;;;;;;;;;;;;7.56;100.00;101762.22;5094658;28;19971;-76
2024/02/04 04:56:29;;;;;;;;;;;;;;;7.55;100.00;101762.41;5090797;28;19920;-76
2024/02/04 04:58:54;;;;;;;;;;;;;;;7.57;100.00;101765.78;5083704;28;20050;-76
2024/02/04 05:01:19;;;;;;;;;;;;;;;7.60;100.00;101765.44;5091817;28;19920;-77
2024/02/04 05:03:44;;;;;;;;;;;;;;;7.62;100.00;101758.09;5101838;28;19927;-76
2024/02/04 05:06:09;;;;;;;;;;;;;;;7.58;100.00;101751.38;5100140;28;19919;-76
2024/02/04 05:08:35;;;;;;;;;;;;;;;7.57;100.00;101738.97;5119734;28;20010;-76
2024/02/04 05:11:00;;;;;;;;;;;;;;;7.48;100.00;101746.09;5099009;28;19974;-76
2024/02/04 05:13:25;;;;;;;;;;;;;;;7.46;100.00;101747.22;5103832;28;19955;-76
2024/02/04 05:15:50;;;;;;;;;;;;;;;7.44;100.00;101750.91;5096321;28;19961;-76
2024/02/04 05:18:16;;;;;;;;;;;;;;;7.45;100.00;101738.38;5107886;28;19969;-76
2024/02/04 05:20:43;;;;;;;;;;;;;;;7.46;100.00;101737.38;5100685;28;19927;-76
2024/02/04 05:23:08;;;;;;;;;;;;;;;7.45;100.00;101738.38;5100167;28;20282;-76
2024/02/04 05:25:33;;;;;;;;;;;;;;;7.47;100.00;101732.84;5090978;28;20538;-76
2024/02/04 05:27:59;;;;;;;;;;;;;;;7.45;100.00;101735.69;5091111;28;20055;-76
2024/02/04 05:30:24;;;;;;;;;;;;;;;7.39;100.00;101731.81;5096357;28;20010;-76
2024/02/04 05:32:49;;;;;;;;;;;;;;;7.39;100.00;101731.81;5097356;28;20066;-76
2024/02/04 05:35:14;;;;;;;;;;;;;;;7.37;100.00;101736.47;5100609;28;20027;-76
2024/02/04 05:37:40;;;;;;;;;;;;;;;7.31;100.00;101731.72;5101512;28;19980;-76
2024/02/04 05:40:06;;;;;;;;;;;;;;;7.27;100.00;101739.22;5089727;28;20017;-76
2024/02/04 05:42:35;;;;;;;;;;;;;;;7.22;100.00;101733.47;5095201;28;20047;-76
2024/02/04 05:45:00;;;;;;;;;;;;;;;7.21;100.00;101739.81;5104838;28;20423;-76
2024/02/04 05:47:26;;;;;;;;;;;;;;;7.18;100.00;101737.44;5084967;28;19930;-76
2024/02/04 05:49:51;;;;;;;;;;;;;;;7.15;100.00;101744.94;5080260;28;20117;-76
2024/02/04 05:52:16;;;;;;;;;;;;;;;7.13;100.00;101737.91;5081218;28;19970;-76
2024/02/04 05:54:41;;;;;;;;;;;;;;;7.16;100.00;101747.47;5087262;28;19963;-76
2024/02/04 05:57:06;;;;;;;;;;;;;;;7.11;100.00;101737.22;5088815;28;19981;-76
2024/02/04 05:59:32;;;;;;;;;;;;;;;7.11;100.00;101736.38;5088137;28;19927;-76
2024/02/04 06:01:57;;;;;;;;;;;;;;;7.07;100.00;101735.81;5077367;28;19932;-76
2024/02/04 06:04:22;;;;;;;;;;;;;;;7.06;100.00;101728.78;5089201;28;20356;-78
2024/02/04 06:06:50;;;;;;;;;;;;;;;7.04;100.00;101728.13;5089977;28;20340;-78
2024/02/04 06:09:15;;;;;;;;;;;;;;;7.02;100.00;101714.03;5088176;28;19935;-78
2024/02/04 06:11:44;;;;;;;;;;;;;;;7.05;100.00;101713.75;5084015;28;20505;-78
2024/02/04 06:14:09;;;;;;;;;;;;;;;7.04;100.00;101705.84;5089270;28;19942;-78
2024/02/04 06:16:34;;;;;;;;;;;;;;;7.04;100.00;101698.69;5088717;28;19932;-78
2024/02/04 06:19:00;;;;;;;;;;;;;;;7.02;100.00;101708.69;5088895;28;19928;-78
2024/02/04 06:21:25;;;;;;;;;;;;;;;7.04;100.00;101704.03;5088784;28;19978;-78
2024/02/04 06:23:50;;;;;;;;;;;;;;;7.00;100.00;101716.03;5088618;28;20395;-78
2024/02/04 06:26:15;;;;;;;;;;;;;;;7.00;100.00;101717.84;5088659;28;20317;-78
2024/02/04 06:28:40;;;;;;;;;;;;;;;6.98;100.00;101713.50;5090126;28;20323;-78
2024/02/04 06:31:08;;;;;;;;;;;;;;;6.99;100.00;101722.38;5092177;28;20367;-78
2024/02/04 06:33:33;;;;;;;;;;;;;;;6.99;100.00;101725.06;5092076;28;20290;-78
2024/02/04 06:35:59;;;;;;;;;;;;;;;6.98;100.00;101726.88;5092547;28;19920;-77
2024/02/04 06:38:24;;;;;;;;;;;;;;;6.96;100.00;101725.34;5092178;28;20454;-77
2024/02/04 06:40:49;;;;;;;;;;;;;;;6.94;100.00;101705.91;5090565;28;20323;-77
2024/02/04 06:43:14;;;;;;;;;;;;;;;6.96;100.00;101698.59;5092157;28;20260;-77
2024/02/04 06:45:40;;;;;;;;;;;;;;;6.96;100.00;101699.44;5091810;28;20645;-78
2024/02/04 06:48:05;;;;;;;;;;;;;;;6.93;100.00;101698.88;5090351;28;20288;-77
2024/02/04 06:50:30;;;;;;;;;;;;;;;6.93;100.00;101701.56;5083439;28;19966;-78
2024/02/04 06:52:56;;;;;;;;;;;;;;;6.95;100.00;101696.91;5092320;28;19920;-78
2024/02/04 06:55:21;;;;;;;;;;;;;;;6.96;100.00;101703.94;5091360;28;19920;-78
2024/02/04 06:57:46;;;;;;;;;;;;;;;6.97;100.00;101705.63;5091136;28;19924;-77
2024/02/04 07:00:12;;;;;;;;;;;;;;;6.94;100.00;101716.63;5090870;28;19959;-77
2024/02/04 07:02:37;;;;;;;;;;;;;;;6.94;100.00;101719.31;5090987;28;20364;-77
2024/02/04 07:05:02;;;;;;;;;;;;;;;6.90;100.00;101721.44;5090652;28;19920;-76
2024/02/04 07:07:28;;;;;;;;;;;;;;;6.86;100.00;101735.28;5089174;28;19943;-77
2024/02/04 07:09:53;;;;;;;;;;;;;;;6.82;100.00;101724.88;5088268;28;19920;-77
2024/02/04 07:12:18;;;;;;;;;;;;;;;6.79;100.00;101719.81;5091224;28;20608;-77
2024/02/04 07:14:43;;;;;;;;;;;;;;;6.79;100.00;101710.97;5101073;28;19908;-77
2024/02/04 07:17:11;;;;;;;;;;;;;;;6.74;100.00;101714.06;5100293;28;19920;-77
2024/02/04 07:19:36;;;;;;;;;;;;;;;6.73;100.00;101719.59;5092921;28;19920;-78
2024/02/04 07:22:01;;;;;;;;;;;;;;;6.70;100.00;101715.38;5092008;28;20406;-78
2024/02/04 07:24:27;;;;;;;;;;;;;;;6.69;100.00;101703.00;5090572;28;20435;-78
2024/02/04 07:26:52;;;;;;;;;;;;;;;6.67;100.00;101704.97;5090239;28;19920;-78
2024/02/04 07:29:17;;;;;;;;;;;;;;;6.72;100.00;101696.50;5092226;28;19920;-78
2024/02/04 07:31:42;;;;;;;;;;;;;;;6.70;100.00;101695.81;5089744;28;19927;-78
2024/02/04 07:34:08;;;;;;;;;;;;;;;6.67;100.00;101699.63;5089794;28;19924;-77
2024/02/04 07:36:33;;;;;;;;;;;;;;;6.67;100.00;101700.47;5090322;28;19924;-78
2024/02/04 07:38:59;;;;;;;;;;;;;;;6.67;100.00;101710.31;5089011;28;19955;-78
2024/02/04 07:41:24;;;;;;;;;;;;;;;6.65;100.00;101714.97;5072800;28;19973;-78
2024/02/04 07:43:49;;;;;;;;;;;;;;;6.65;100.00;101701.59;5091213;28;20330;-78
2024/02/04 07:46:15;;;;;;;;;;;;;;;6.64;100.00;101697.25;5089589;28;19921;-78
2024/02/04 07:48:40;;;;;;;;;;;;;;;6.64;100.00;101699.91;5092572;28;20154;-78
2024/02/04 07:51:06;;;;;;;;;;;;;;;6.64;100.00;101707.94;5095460;28;19928;-79
2024/02/04 07:53:31;;;;;;;;;;;;;;;6.71;100.00;101710.88;5098146;28;20401;-78
2024/02/04 07:55:57;;;;;;;;;;;;;;;6.76;100.00;101701.38;5093977;28;19924;-78
2024/02/04 07:58:22;;;;;;;;;;;;;;;6.77;100.00;101695.03;5103158;28;19920;-78
2024/02/04 08:00:47;;;;;;;;;;;;;;;6.80;100.00;101705.44;5104061;28;19999;-78
2024/02/04 08:03:12;;;;;;;;;;;;;;;6.82;100.00;101697.25;5094629;28;19967;-78
2024/02/04 08:05:38;;;;;;;;;;;;;;;6.83;100.00;101699.81;5101078;28;19920;-78
2024/02/04 08:08:04;;;;;;;;;;;;;;;6.87;100.00;101704.84;5093128;28;20037;-78
2024/02/04 08:10:29;;;;;;;;;;;;;;;6.86;100.00;101703.19;5105350;28;19967;-78
2024/02/04 08:12:54;;;;;;;;;;;;;;;6.87;100.00;101683.44;5098646;28;20389;-79
2024/02/04 08:15:20;;;;;;;;;;;;;;;6.90;100.00;101667.91;5094313;28;20334;-77
2024/02/04 08:17:45;;;;;;;;;;;;;;;7.01;100.00;101674.88;5108830;28;19979;-75
2024/02/04 08:20:13;;;;;;;;;;;;;;;6.98;100.00;101675.19;5101859;28;20356;-75
2024/02/04 08:22:38;;;;;;;;;;;;;;;6.94;100.00;101676.47;5108476;28;19930;-75
2024/02/04 08:25:05;;;;;;;;;;;;;;;6.94;100.00;101671.13;5091052;28;19924;-78
2024/02/04 08:27:30;;;;;;;;;;;;;;;6.90;100.00;101662.56;5103878;28;19920;-76
2024/02/04 08:29:56;;;;;;;;;;;;;;;6.95;100.00;101670.13;5093930;28;19928;-77
2024/02/04 08:32:21;;;;;;;;;;;;;;;7.02;100.00;101673.03;5098601;28;19928;-79
2024/02/04 08:34:46;;;;;;;;;;;;;;;7.07;100.00;101684.13;5101995;28;20239;-78
2024/02/04 08:37:11;;;;;;;;;;;;;;;7.10;100.00;101679.31;5102048;28;19946;-77
2024/02/04 08:39:37;;;;;;;;;;;;;;;7.10;100.00;101679.31;5100697;28;19924;-79
2024/02/04 08:42:02;;;;;;;;;;;;;;;7.10;100.00;101686.50;5101300;28;19927;-81
2024/02/04 08:44:27;;;;;;;;;;;;;;;7.11;100.00;101682.84;5093058;28;19920;-79
2024/02/04 08:46:52;;;;;;;;;;;;;;;7.20;100.00;101673.88;5094449;28;20420;-78
2024/02/04 08:49:18;;;;;;;;;;;;;;;7.26;100.00;101669.72;5093255;28;20416;-79
2024/02/04 08:51:43;;;;;;;;;;;;;;;7.35;100.00;101674.16;5087330;28;19920;-80
2024/02/04 08:54:08;;;;;;;;;;;;;;;7.43;100.00;101674.22;5089663;28;19970;-79
2024/02/04 08:56:34;;;;;;;;;;;;;;;7.53;100.00;101670.63;5088953;28;20435;-79
2024/02/04 08:59:01;;;;;;;;;;;;;;;7.66;100.00;101665.66;5090171;28;19920;-79
2024/02/04 09:01:27;;;;;;;;;;;;;;;7.73;100.00;101655.16;5087845;28;20011;-79
2024/02/04 09:03:52;;;;;;;;;;;;;;;7.82;100.00;101648.00;5088069;28;20007;-79
2024/02/04 09:06:18;;;;;;;;;;;;;;;7.84;100.00;101643.34;5089831;28;19927;-80
2024/02/04 09:08:43;;;;;;;;;;;;;;;7.86;100.00;101654.72;5089324;28;19920;-78
2024/02/04 09:11:08;;;;;;;;;;;;;;;7.87;100.00;101659.94;5088412;28;20346;-78
2024/02/04 09:13:34;;;;;;;;;;;;;;;7.91;100.00;101657.78;5089869;28;20347;-78
2024/02/04 09:15:59;;;;;;;;;;;;;;;7.93;100.00;101668.34;5088558;28;19920;-78
2024/02/04 09:18:24;;;;;;;;;;;;;;;7.94;100.00;101672.69;5088160;28;19952;-78
2024/02/04 09:20:50;;;;;;;;;;;;;;;7.94;100.00;101676.25;5090613;28;19920;-78
2024/02/04 09:23:15;;;;;;;;;;;;;;;7.93;100.00;101685.28;5106576;28;19932;-78
2024/02/04 09:25:40;;;;;;;;;;;;;;;7.94;100.00;101670.88;5088849;28;19982;-78
2024/02/04 09:28:05;;;;;;;;;;;;;;;7.98;100.00;101669.53;5090186;28;19924;-78
2024/02/04 09:30:31;;;;;;;;;;;;;;;7.95;100.00;101671.72;5087495;28;19927;-78
2024/02/04 09:32:56;;;;;;;;;;;;;;;8.01;100.00;101681.81;5086176;28;20375;-79
2024/02/04 09:35:21;;;;;;;;;;;;;;;7.98;100.00;101682.94;5089635;28;19927;-79
2024/02/04 09:37:47;;;;;;;;;;;;;;;8.01;100.00;101688.00;5090107;28;20290;-79
2024/02/04 09:40:12;;;;;;;;;;;;;;;8.01;100.00;101687.16;5088408;28;20003;-80
2024/02/04 09:42:37;;;;;;;;;;;;;;;8.00;100.00;101682.81;5071009;28;19920;-79
2024/02/04 09:45:02;;;;;;;;;;;;;;;7.99;100.00;101678.44;5088433;28;20378;-79
2024/02/04 09:47:28;;;;;;;;;;;;;;;7.88;100.00;101675.00;5086730;28;20340;-80
2024/02/04 09:49:56;;;;;;;;;;;;;;;7.83;100.00;101680.03;5095291;28;19920;-79
2024/02/04 09:52:21;;;;;;;;;;;;;;;7.85;100.00;101677.19;5074657;28;19920;-80
2024/02/04 09:54:49;;;;;;;;;;;;;;;7.93;100.00;101679.06;5079339;28;20581;-79
2024/02/04 09:57:15;;;;;;;;;;;;;;;7.82;100.00;101674.81;5089153;28;19924;-79
2024/02/04 09:59:40;;;;;;;;;;;;;;;7.78;100.00;101670.75;5077941;28;19930;-79
2024/02/04 10:02:05;;;;;;;;;;;;;;;7.90;100.00;101664.16;5088620;28;20368;-79
2024/02/04 10:04:31;;;;;;;;;;;;;;;7.86;100.00;101665.47;5093110;28;19951;-79
2024/02/04 10:06:56;;;;;;;;;;;;;;;7.92;100.00;101669.34;5091528;28;20368;-79
2024/02/04 10:09:22;;;;;;;;;;;;;;;7.91;100.00;101681.06;5087969;28;20324;-79
2024/02/04 10:11:47;;;;;;;;;;;;;;;7.88;100.00;101675.00;5093084;28;20256;-79
2024/02/04 10:14:12;;;;;;;;;;;;;;;7.90;100.00;101672.19;5092765;28;19928;-78
2024/02/04 10:16:38;;;;;;;;;;;;;;;7.86;100.00;101678.88;5091825;28;20111;-78
2024/02/04 10:19:03;;;;;;;;;;;;;;;7.90;100.00;101680.22;5092283;28;19924;-79
2024/02/04 10:21:28;;;;;;;;;;;;;;;7.92;100.00;101662.16;5092234;28;20164;-79
2024/02/04 10:23:55;;;;;;;;;;;;;;;7.94;100.00;101665.53;5092462;28;19959;-79
2024/02/04 10:26:20;;;;;;;;;;;;;;;8.01;100.00;101669.22;5092792;28;19920;-78
2024/02/04 10:28:47;;;;;;;;;;;;;;;8.10;100.00;101663.91;5091472;28;19962;-79
2024/02/04 10:31:12;;;;;;;;;;;;;;;8.19;100.00;101658.44;5091440;28;19955;-79
2024/02/04 10:33:37;;;;;;;;;;;;;;;8.35;100.00;101657.63;5092163;28;19967;-79
2024/02/04 10:36:03;;;;;;;;;;;;;;;8.32;100.00;101657.94;5092145;28;19943;-79
2024/02/04 10:38:28;;;;;;;;;;;;;;;8.43;100.00;101656.00;5091863;28;20452;-79
2024/02/04 10:40:54;;;;;;;;;;;;;;;8.49;100.00;101660.72;5094758;28;20368;-79
2024/02/04 10:43:19;;;;;;;;;;;;;;;8.57;100.00;101658.06;5109794;28;19919;-79
2024/02/04 10:45:44;;;;;;;;;;;;;;;8.58;100.00;101659.75;5087310;28;20328;-79
2024/02/04 10:48:09;;;;;;;;;;;;;;;8.58;100.00;101667.81;5083269;28;20479;-79
2024/02/04 10:50:35;;;;;;;;;;;;;;;8.63;100.00;101670.84;5097167;28;19931;-79
2024/02/04 10:53:02;;;;;;;;;;;;;;;8.61;100.00;101667.50;5107119;28;19931;-79
2024/02/04 10:55:28;;;;;;;;;;;;;;;8.75;100.00;101671.34;5105676;28;19972;-79
2024/02/04 10:57:53;;;;;;;;;;;;;;;8.76;100.00;101666.84;5103544;28;19920;-79
2024/02/04 11:00:20;;;;;;;;;;;;;;;8.82;100.00;101676.94;5105433;28;19919;-79
2024/02/04 11:02:47;;;;;;;;;;;;;;;8.79;100.00;101663.84;5091953;28;19931;-79
2024/02/04 11:05:12;;;;;;;;;;;;;;;8.77;100.00;101663.16;5092675;28;19928;-79
2024/02/04 11:07:37;;;;;;;;;;;;;;;8.73;100.00;101659.13;5091113;28;20280;-79
2024/02/04 11:10:02;;;;;;;;;;;;;;;8.84;100.00;101660.66;5098565;28;20025;-78
2024/02/04 11:12:28;;;;;;;;;;;;;;;8.87;100.00;101661.16;5095908;28;19920;-78
2024/02/04 11:14:54;;;;;;;;;;;;;;;8.86;100.00;101637.97;5078740;28;20468;-78
2024/02/04 11:17:22;;;;;;;;;;;;;;;8.90;100.00;101644.72;5101844;28;19980;-78
2024/02/04 11:19:57;;;;;;;;;;;;;;;8.91;100.00;101641.03;5076506;28;19928;-79
2024/02/04 11:22:30;;;;;;;;;;;;;;;8.85;100.00;101651.59;5077525;28;20331;-79
2024/02/04 11:25:06;;;;;;;;;;;;;;;8.81;100.00;101648.41;5077684;28;19928;-78
2024/02/04 11:27:31;;;;;;;;;;;;;;;8.82;100.00;101635.81;5091381;28;19927;-79
2024/02/04 11:29:56;;;;;;;;;;;;;;;8.85;100.00;101635.47;5089819;28;19920;-78
2024/02/04 11:32:23;;;;;;;;;;;;;;;8.86;100.00;101643.34;5089485;28;20163;-78
2024/02/04 11:34:48;;;;;;;;;;;;;;;8.91;100.00;101632.13;5091790;28;20383;-78
2024/02/04 11:37:19;;;;;;;;;;;;;;;9.01;100.00;101629.25;5094645;28;19927;-79
2024/02/04 11:39:50;;;;;;;;;;;;;;;9.02;100.00;101636.31;5070609;28;19924;-79
2024/02/04 11:42:16;;;;;;;;;;;;;;;9.06;100.00;101618.88;5091254;28;19931;-78
2024/02/04 11:44:41;;;;;;;;;;;;;;;9.04;100.00;101624.41;5089595;28;19920;-77
2024/02/04 11:47:06;;;;;;;;;;;;;;;9.01;100.00;101640.84;5089747;28;19966;-78
2024/02/04 11:49:31;;;;;;;;;;;;;;;9.05;100.00;101635.97;5091179;28;19923;-78
2024/02/04 11:51:57;;;;;;;;;;;;;;;9.05;100.00;101635.97;5089091;28;19966;-77
2024/02/04 11:54:22;;;;;;;;;;;;;;;8.93;100.00;101633.63;5089934;28;20372;-78
2024/02/04 11:56:53;;;;;;;;;;;;;;;8.89;100.00;101626.09;5090922;28;19943;-78
2024/02/04 11:59:19;;;;;;;;;;;;;;;8.77;100.00;101622.88;5089422;28;19948;-77
2024/02/04 12:01:44;;;;;;;;;;;;;;;8.69;100.00;101631.78;5090154;28;19951;-78
2024/02/04 12:04:10;;;;;;;;;;;;;;;8.61;100.00;101629.06;5090519;28;19985;-77
2024/02/04 12:06:36;;;;;;;;;;;;;;;8.63;100.00;101638.63;5090156;28;20533;-78
2024/02/04 12:09:01;;;;;;;;;;;;;;;8.56;100.00;101636.78;5089972;28;20170;-78
2024/02/04 12:11:27;;;;;;;;;;;;;;;8.47;100.00;101622.47;5090352;28;19920;-78
2024/02/04 12:13:52;;;;;;;;;;;;;;;8.45;100.00;101611.06;5087488;28;19924;-78
2024/02/04 12:16:18;;;;;;;;;;;;;;;8.53;100.00;101599.53;5068147;28;19995;-77
2024/02/04 12:18:49;;;;;;;;;;;;;;;8.39;100.00;101603.66;5085594;28;19935;-78
2024/02/04 12:21:14;;;;;;;;;;;;;;;8.38;100.00;101601.97;5084582;28;19920;-78
2024/02/04 12:23:41;;;;;;;;;;;;;;;8.36;100.00;101594.09;5081866;28;20397;-78
2024/02/04 12:26:07;;;;;;;;;;;;;;;8.28;100.00;101597.59;5084751;28;20015;-78
2024/02/04 12:28:32;;;;;;;;;;;;;;;8.24;100.00;101596.25;5088279;28;20015;-78